createdAt,value
2022-09-18T00:01:25.205Z,99.90
2022-09-18T00:03:55.822Z,99.90
2022-09-18T00:06:25.938Z,99.90
2022-09-18T00:08:55.021Z,99.90
2022-09-18T00:11:23.902Z,99.90
2022-09-18T00:13:52.256Z,99.90
2022-09-18T00:16:21.525Z,99.90
2022-09-18T00:18:49.368Z,99.90
2022-09-18T00:21:20.570Z,99.90
2022-09-18T00:23:48.646Z,99.90
2022-09-18T00:26:18.500Z,99.90
2022-09-18T00:28:46.433Z,99.90
2022-09-18T00:31:17.235Z,99.90
2022-09-18T00:33:45.843Z,99.90
2022-09-18T00:36:15.892Z,99.90
2022-09-18T00:38:43.282Z,99.90
2022-09-18T00:41:16.631Z,99.90
2022-09-18T00:43:44.390Z,99.90
2022-09-18T00:46:26.207Z,99.90
2022-09-18T00:49:03.491Z,99.90
2022-09-18T00:51:34.575Z,99.90
2022-09-18T00:54:06.194Z,99.90
2022-09-18T00:56:33.800Z,99.90
2022-09-18T00:59:01.260Z,99.90
2022-09-18T01:01:28.932Z,99.90
2022-09-18T01:03:56.516Z,99.90
2022-09-18T01:06:37.001Z,99.90
2022-09-18T01:09:08.019Z,99.90
2022-09-18T01:11:36.319Z,99.90
2022-09-18T01:14:12.017Z,99.90
2022-09-18T01:16:46.062Z,99.90
2022-09-18T01:19:31.527Z,99.90
2022-09-18T01:22:05.603Z,99.90
2022-09-18T01:24:55.573Z,99.90
2022-09-18T01:27:42.446Z,99.90
2022-09-18T01:30:12.566Z,99.90
2022-09-18T01:32:51.588Z,99.90
2022-09-18T01:35:47.406Z,99.90
2022-09-18T01:38:20.968Z,99.90
2022-09-18T01:40:56.943Z,99.90
2022-09-18T01:43:28.245Z,99.90
2022-09-18T01:46:00.205Z,99.90
2022-09-18T01:48:37.815Z,99.90
2022-09-18T01:51:14.228Z,99.90
2022-09-18T01:53:46.175Z,99.90
2022-09-18T01:56:24.977Z,99.90
2022-09-18T01:58:57.323Z,99.90
2022-09-18T02:01:36.154Z,99.90
2022-09-18T02:04:09.390Z,99.90
2022-09-18T02:07:14.650Z,99.90
2022-09-18T02:09:43.021Z,99.90
2022-09-18T02:12:16.463Z,99.90
2022-09-18T02:14:47.198Z,99.90
2022-09-18T02:17:56.342Z,99.90
2022-09-18T02:20:37.446Z,99.90
2022-09-18T02:23:07.631Z,99.90
2022-09-18T02:25:44.935Z,99.90
2022-09-18T02:28:16.402Z,99.90
2022-09-18T02:30:46.390Z,99.90
2022-09-18T02:33:33.579Z,99.90
2022-09-18T02:36:03.090Z,99.90
2022-09-18T02:38:37.886Z,99.90
2022-09-18T02:41:22.313Z,99.90
2022-09-18T02:44:01.967Z,99.90
2022-09-18T02:47:03.113Z,99.90
2022-09-18T02:49:35.279Z,99.90
2022-09-18T02:52:08.652Z,99.90
2022-09-18T02:54:58.251Z,99.90
2022-09-18T02:57:31.796Z,99.90
2022-09-18T03:00:01.914Z,99.90
2022-09-18T03:02:37.377Z,99.90
2022-09-18T03:05:06.253Z,99.90
2022-09-18T03:07:43.127Z,99.90
2022-09-18T03:10:12.030Z,99.90
2022-09-18T03:12:39.663Z,99.90
2022-09-18T03:15:09.276Z,99.90
2022-09-18T03:17:36.881Z,99.90
2022-09-18T03:20:07.381Z,99.90
2022-09-18T03:22:35.552Z,99.90
2022-09-18T03:25:03.704Z,99.90
2022-09-18T03:27:33.598Z,99.90
2022-09-18T03:30:01.771Z,99.90
2022-09-18T03:32:32.745Z,99.90
2022-09-18T03:35:00.433Z,99.90
2022-09-18T03:37:28.690Z,99.90
2022-09-18T03:39:58.092Z,99.90
2022-09-18T03:42:25.927Z,99.90
2022-09-18T03:44:53.463Z,99.90
2022-09-18T03:47:30.862Z,99.90
2022-09-18T03:50:00.755Z,99.90
2022-09-18T03:52:31.270Z,99.90
2022-09-18T03:55:07.654Z,99.90
2022-09-18T03:57:54.785Z,99.90
2022-09-18T04:00:35.728Z,99.90
2022-09-18T04:03:08.983Z,99.90
2022-09-18T04:05:56.551Z,99.90
2022-09-18T04:08:43.837Z,99.90
2022-09-18T04:11:23.977Z,99.90
2022-09-18T04:13:51.799Z,99.90
2022-09-18T04:16:19.188Z,99.90
2022-09-18T04:18:47.011Z,99.90
2022-09-18T04:21:14.989Z,99.90
2022-09-18T04:23:43.006Z,99.90
2022-09-18T04:26:12.684Z,99.90
2022-09-18T04:28:47.407Z,99.90
2022-09-18T04:31:15.168Z,99.90
2022-09-18T04:33:42.212Z,99.90
2022-09-18T04:36:09.710Z,99.90
2022-09-18T04:38:38.195Z,99.90
2022-09-18T04:41:05.622Z,99.90
2022-09-18T04:43:33.350Z,99.90
2022-09-18T04:46:00.958Z,99.90
2022-09-18T04:48:28.135Z,99.90
2022-09-18T04:50:56.763Z,99.90
2022-09-18T04:53:25.955Z,99.90
2022-09-18T04:55:53.237Z,99.90
2022-09-18T04:58:21.066Z,99.90
2022-09-18T05:00:54.621Z,99.90
2022-09-18T05:03:22.747Z,99.90
2022-09-18T05:05:51.590Z,99.90
2022-09-18T05:08:18.847Z,99.90
2022-09-18T05:10:45.985Z,99.90
2022-09-18T05:13:14.180Z,99.90
2022-09-18T05:15:56.066Z,99.90
2022-09-18T05:18:24.794Z,99.90
2022-09-18T05:20:55.612Z,99.90
2022-09-18T05:23:22.653Z,99.90
2022-09-18T05:25:49.953Z,99.90
2022-09-18T05:28:19.301Z,99.90
2022-09-18T05:30:50.272Z,99.90
2022-09-18T05:33:17.468Z,99.90
2022-09-18T05:35:44.599Z,99.90
2022-09-18T05:38:12.193Z,99.90
2022-09-18T05:40:44.400Z,99.90
2022-09-18T05:43:11.580Z,99.90
2022-09-18T05:45:38.872Z,99.90
2022-09-18T05:48:15.816Z,99.90
2022-09-18T05:50:43.389Z,99.90
2022-09-18T05:53:15.813Z,99.90
2022-09-18T05:55:50.050Z,99.90
2022-09-18T05:58:19.364Z,99.90
2022-09-18T06:00:51.198Z,99.90
2022-09-18T06:03:24.579Z,99.90
2022-09-18T06:05:53.353Z,99.90
2022-09-18T06:08:21.697Z,99.90
2022-09-18T06:10:49.081Z,99.90
2022-09-18T06:13:18.514Z,99.90
2022-09-18T06:15:52.545Z,99.90
2022-09-18T06:18:31.601Z,99.90
2022-09-18T06:21:01.044Z,99.90
2022-09-18T06:23:30.173Z,99.90
2022-09-18T06:26:06.076Z,99.90
2022-09-18T06:28:35.417Z,99.90
2022-09-18T06:31:06.089Z,99.90
2022-09-18T06:33:49.191Z,99.90
2022-09-18T06:36:16.951Z,98.50
2022-09-18T06:38:59.394Z,94.60
2022-09-18T06:41:27.066Z,87.30
2022-09-18T06:43:55.990Z,79.30
2022-09-18T06:46:32.916Z,72.90
2022-09-18T06:49:12.738Z,71.80
2022-09-18T06:51:43.401Z,70.30
2022-09-18T06:54:13.540Z,70.80
2022-09-18T06:56:42.420Z,69.00
2022-09-18T06:59:12.565Z,67.60
2022-09-18T07:01:40.677Z,66.70
2022-09-18T07:04:27.551Z,66.50
2022-09-18T07:06:57.342Z,65.90
2022-09-18T07:09:28.324Z,65.50
2022-09-18T07:12:02.651Z,60.40
2022-09-18T07:14:41.013Z,61.80
2022-09-18T07:17:16.973Z,62.90
2022-09-18T07:19:47.063Z,61.70
2022-09-18T07:22:16.515Z,61.50
2022-09-18T07:24:46.873Z,63.60
2022-09-18T07:27:14.431Z,64.60
2022-09-18T07:29:43.177Z,65.40
2022-09-18T07:32:13.950Z,63.40
2022-09-18T07:34:43.882Z,62.90
2022-09-18T07:37:13.815Z,60.40
2022-09-18T07:39:45.601Z,61.10
2022-09-18T07:42:32.808Z,58.10
2022-09-18T07:45:01.867Z,61.70
2022-09-18T07:47:30.234Z,64.80
2022-09-18T07:49:59.722Z,68.30
2022-09-18T07:52:26.873Z,72.90
2022-09-18T07:54:53.937Z,74.40
2022-09-18T07:57:30.531Z,77.60
2022-09-18T08:00:12.319Z,78.40
2022-09-18T08:02:43.365Z,79.50
2022-09-18T08:05:16.797Z,80.50
2022-09-18T08:07:52.192Z,83.30
2022-09-18T08:10:40.406Z,85.70
2022-09-18T08:13:27.523Z,88.40
2022-09-18T08:16:11.186Z,81.20
2022-09-18T08:18:58.535Z,75.90
2022-09-18T08:21:36.063Z,68.20
2022-09-18T08:24:08.337Z,64.10
2022-09-18T08:26:38.750Z,62.00
2022-09-18T08:29:07.394Z,58.90
2022-09-18T08:31:36.941Z,55.20
2022-09-18T08:34:07.504Z,60.70
2022-09-18T08:36:35.015Z,63.50
2022-09-18T08:39:10.268Z,61.80
2022-09-18T08:42:26.026Z,62.00
2022-09-18T08:45:01.016Z,67.50
2022-09-18T08:47:34.492Z,69.20
2022-09-18T08:50:10.858Z,68.30
2022-09-18T08:52:45.375Z,65.90
2022-09-18T08:55:30.453Z,74.60
2022-09-18T08:58:15.874Z,67.70
2022-09-18T09:00:50.783Z,70.90
2022-09-18T09:03:44.966Z,71.60
2022-09-18T09:06:39.537Z,73.00
2022-09-18T09:09:29.489Z,69.30
2022-09-18T09:12:14.174Z,68.50
2022-09-18T09:14:57.071Z,72.50
2022-09-18T09:17:49.656Z,72.90
2022-09-18T09:20:23.147Z,72.30
2022-09-18T09:23:03.742Z,74.50
2022-09-18T09:25:36.467Z,68.80
2022-09-18T09:28:26.525Z,65.90
2022-09-18T09:31:16.074Z,68.00
2022-09-18T09:34:07.262Z,65.10
2022-09-18T09:36:57.380Z,73.50
2022-09-18T09:39:29.611Z,66.50
2022-09-18T09:42:21.950Z,62.60
2022-09-18T09:45:01.631Z,64.40
2022-09-18T09:47:55.351Z,67.90
2022-09-18T09:50:37.803Z,68.30
2022-09-18T09:53:09.304Z,70.80
2022-09-18T09:55:49.609Z,65.50
2022-09-18T09:58:56.998Z,66.00
2022-09-18T10:01:32.099Z,68.20
2022-09-18T10:04:15.870Z,66.10
2022-09-18T10:06:45.748Z,64.20
2022-09-18T10:09:33.744Z,66.70
2022-09-18T10:12:12.437Z,68.40
2022-09-18T10:14:43.441Z,64.40
2022-09-18T10:17:13.195Z,67.90
2022-09-18T10:19:43.063Z,64.90
2022-09-18T10:22:15.365Z,65.50
2022-09-18T10:25:04.109Z,65.60
2022-09-18T10:27:32.446Z,66.10
2022-09-18T10:30:00.207Z,67.60
2022-09-18T10:32:41.946Z,66.60
2022-09-18T10:35:42.750Z,67.40
2022-09-18T10:38:30.457Z,68.70
2022-09-18T10:41:17.992Z,69.60
2022-09-18T10:44:14.727Z,75.40
2022-09-18T10:47:13.058Z,66.90
2022-09-18T10:49:50.699Z,71.20
2022-09-18T10:52:40.725Z,69.60
2022-09-18T10:55:18.989Z,65.60
2022-09-18T10:58:14.553Z,61.50
2022-09-18T11:00:50.272Z,69.30
2022-09-18T11:03:39.081Z,73.00
2022-09-18T11:06:15.116Z,72.50
2022-09-18T11:08:47.366Z,62.80
2022-09-18T11:11:29.190Z,61.60
2022-09-18T11:14:01.279Z,66.00
2022-09-18T11:16:45.653Z,64.70
2022-09-18T11:19:17.294Z,69.00
2022-09-18T11:21:56.763Z,64.50
2022-09-18T11:24:27.702Z,63.00
2022-09-18T11:27:22.220Z,63.90
2022-09-18T11:29:52.980Z,62.40
2022-09-18T11:32:25.577Z,66.40
2022-09-18T11:35:02.121Z,67.30
2022-09-18T11:37:40.069Z,72.00
2022-09-18T11:40:16.752Z,67.00
2022-09-18T11:42:47.897Z,68.10
2022-09-18T11:45:41.753Z,70.80
2022-09-18T11:48:24.033Z,69.50
2022-09-18T11:50:55.336Z,66.20
2022-09-18T11:53:27.914Z,70.70
2022-09-18T11:56:07.454Z,71.80
2022-09-18T11:58:40.907Z,67.00
2022-09-18T12:01:12.904Z,69.80
2022-09-18T12:03:56.479Z,70.30
2022-09-18T12:06:35.583Z,65.70
2022-09-18T12:09:12.329Z,65.40
2022-09-18T12:11:49.094Z,70.60
2022-09-18T12:14:23.125Z,69.90
2022-09-18T12:17:16.553Z,70.30
2022-09-18T12:19:50.173Z,67.30
2022-09-18T12:22:38.171Z,69.30
2022-09-18T12:25:14.694Z,67.90
2022-09-18T12:28:21.625Z,66.90
2022-09-18T12:31:29.125Z,68.00
2022-09-18T12:34:01.653Z,70.20
2022-09-18T12:36:28.790Z,69.90
2022-09-18T12:39:18.477Z,61.60
2022-09-18T12:41:53.926Z,70.10
2022-09-18T12:44:36.665Z,64.80
2022-09-18T12:47:20.913Z,66.80
2022-09-18T12:49:57.828Z,65.10
2022-09-18T12:53:06.302Z,63.50
2022-09-18T12:55:52.180Z,64.70
2022-09-18T12:58:27.774Z,68.00
2022-09-18T13:00:56.359Z,66.20
2022-09-18T13:03:35.604Z,68.70
2022-09-18T13:06:11.027Z,67.30
2022-09-18T13:08:54.146Z,70.00
2022-09-18T13:11:36.773Z,65.80
2022-09-18T13:14:27.330Z,68.30
2022-09-18T13:17:04.036Z,66.50
2022-09-18T13:19:35.585Z,70.40
2022-09-18T13:22:07.226Z,70.20
2022-09-18T13:24:36.486Z,70.70
2022-09-18T13:27:09.526Z,68.20
2022-09-18T13:29:52.780Z,71.60
2022-09-18T13:32:37.746Z,74.60
2022-09-18T13:35:27.498Z,80.40
2022-09-18T13:38:06.430Z,77.90
2022-09-18T13:40:37.310Z,78.90
2022-09-18T13:43:18.290Z,77.80
2022-09-18T13:45:45.707Z,78.80
2022-09-18T13:48:13.060Z,77.80
2022-09-18T13:50:59.307Z,82.20
2022-09-18T13:53:39.160Z,84.20
2022-09-18T13:56:10.085Z,78.10
2022-09-18T13:58:38.955Z,84.70
2022-09-18T14:01:08.073Z,89.80
2022-09-18T14:03:39.422Z,90.30
2022-09-18T14:06:42.562Z,90.40
2022-09-18T14:09:47.337Z,84.80
2022-09-18T14:12:16.893Z,90.20
2022-09-18T14:14:56.318Z,89.30
2022-09-18T14:17:25.474Z,90.50
2022-09-18T14:20:06.006Z,91.30
2022-09-18T14:22:35.796Z,90.80
2022-09-18T14:25:07.235Z,94.00
2022-09-18T14:27:41.137Z,95.50
2022-09-18T14:30:16.496Z,96.50
2022-09-18T14:33:04.151Z,97.70
2022-09-18T14:35:54.272Z,98.30
2022-09-18T14:38:26.525Z,99.10
2022-09-18T14:40:59.221Z,99.90
2022-09-18T14:43:27.353Z,99.90
2022-09-18T14:45:55.107Z,99.90
2022-09-18T14:48:28.270Z,97.30
2022-09-18T14:51:24.307Z,97.90
2022-09-18T14:53:55.887Z,96.50
2022-09-18T14:56:29.300Z,90.60
2022-09-18T14:58:59.152Z,91.40
2022-09-18T15:01:29.981Z,92.90
2022-09-18T15:03:59.999Z,95.10
2022-09-18T15:06:48.249Z,95.30
2022-09-18T15:09:22.729Z,96.50
2022-09-18T15:12:02.160Z,95.30
2022-09-18T15:14:44.134Z,96.20
2022-09-18T15:17:24.223Z,96.30
2022-09-18T15:19:57.393Z,96.60
2022-09-18T15:22:25.521Z,97.00
2022-09-18T15:24:52.846Z,97.40
2022-09-18T15:27:21.355Z,97.30
2022-09-18T15:29:50.493Z,98.00
2022-09-18T15:32:30.755Z,99.40
2022-09-18T15:34:59.200Z,98.20
2022-09-18T15:37:28.020Z,98.60
2022-09-18T15:40:02.156Z,99.50
2022-09-18T15:42:32.333Z,99.90
2022-09-18T15:45:00.418Z,99.90
2022-09-18T15:47:28.525Z,99.90
2022-09-18T15:49:56.818Z,99.90
2022-09-18T15:53:01.844Z,99.90
2022-09-18T15:55:31.731Z,99.90
2022-09-18T15:58:01.268Z,99.90
2022-09-18T16:00:32.138Z,99.90
2022-09-18T16:03:01.759Z,99.90
2022-09-18T16:05:30.647Z,99.90
2022-09-18T16:08:01.980Z,99.90
2022-09-18T16:10:37.891Z,99.90
2022-09-18T16:13:13.472Z,99.90
2022-09-18T16:15:47.324Z,99.90
2022-09-18T16:18:30.410Z,99.90
2022-09-18T16:20:58.588Z,99.90
2022-09-18T16:23:47.848Z,99.90
2022-09-18T16:26:24.906Z,99.90
2022-09-18T16:29:04.087Z,99.90
2022-09-18T16:31:34.432Z,99.90
2022-09-18T16:34:04.924Z,99.90
2022-09-18T16:36:34.806Z,99.90
2022-09-18T16:39:11.884Z,99.90
2022-09-18T16:41:39.383Z,99.90
2022-09-18T16:44:11.120Z,99.90
2022-09-18T16:46:43.231Z,99.90
2022-09-18T16:49:13.238Z,99.90
2022-09-18T16:51:41.830Z,99.90
2022-09-18T16:54:09.008Z,99.90
2022-09-18T16:56:42.750Z,99.90
2022-09-18T16:59:10.927Z,99.90
2022-09-18T17:02:00.538Z,99.90
2022-09-18T17:04:28.031Z,99.90
2022-09-18T17:06:55.536Z,99.90
2022-09-18T17:09:23.966Z,99.90
2022-09-18T17:11:56.988Z,99.90
2022-09-18T17:14:24.756Z,99.90
2022-09-18T17:16:52.501Z,99.90
2022-09-18T17:19:20.003Z,99.90
2022-09-18T17:21:47.448Z,99.90
2022-09-18T17:24:14.396Z,99.90
2022-09-18T17:26:42.331Z,99.90
2022-09-18T17:29:11.432Z,99.90
2022-09-18T17:31:38.471Z,99.90
2022-09-18T17:34:05.974Z,99.90
2022-09-18T17:36:36.777Z,99.90
2022-09-18T17:39:04.776Z,99.90
2022-09-18T17:41:33.247Z,99.90
2022-09-18T17:44:00.793Z,99.90
2022-09-18T17:46:28.105Z,99.90
2022-09-18T17:48:57.202Z,99.90
2022-09-18T17:51:28.447Z,99.90
2022-09-18T17:54:03.252Z,99.90
2022-09-18T17:56:32.650Z,99.90
2022-09-18T17:59:05.696Z,99.90
2022-09-18T18:01:36.568Z,99.90
2022-09-18T18:04:05.155Z,99.90
2022-09-18T18:06:33.227Z,99.90
2022-09-18T18:09:00.901Z,99.90
2022-09-18T18:11:29.634Z,99.90
2022-09-18T18:13:57.207Z,99.90
2022-09-18T18:16:29.066Z,99.90
2022-09-18T18:18:59.962Z,99.90
2022-09-18T18:21:31.575Z,99.90
2022-09-18T18:24:01.204Z,99.90
2022-09-18T18:26:28.305Z,99.90
2022-09-18T18:28:56.001Z,99.90
2022-09-18T18:31:25.925Z,99.90
2022-09-18T18:33:55.526Z,99.90
2022-09-18T18:36:25.301Z,99.90
2022-09-18T18:38:55.312Z,99.90
2022-09-18T18:41:24.306Z,99.90
2022-09-18T18:43:55.550Z,99.90
2022-09-18T18:46:24.996Z,99.90
2022-09-18T18:49:02.147Z,99.90
2022-09-18T18:51:31.999Z,99.90
2022-09-18T18:54:03.655Z,99.90
2022-09-18T18:56:33.535Z,99.90
2022-09-18T18:59:03.408Z,99.90
2022-09-18T19:01:31.965Z,99.90
2022-09-18T19:04:02.795Z,99.90
2022-09-18T19:06:30.174Z,99.90
2022-09-18T19:08:59.592Z,99.90
2022-09-18T19:11:28.833Z,99.90
2022-09-18T19:13:57.331Z,99.90
2022-09-18T19:16:26.594Z,99.90
2022-09-18T19:18:55.715Z,99.90
2022-09-18T19:21:22.945Z,99.90
2022-09-18T19:23:52.445Z,99.90
2022-09-18T19:26:21.245Z,99.90
2022-09-18T19:28:59.748Z,99.90
2022-09-18T19:31:29.286Z,99.90
2022-09-18T19:33:58.033Z,99.90
2022-09-18T19:36:27.745Z,99.90
2022-09-18T19:38:57.462Z,99.90
2022-09-18T19:41:48.112Z,99.90
2022-09-18T19:44:42.752Z,99.90
2022-09-18T19:47:31.687Z,99.90
2022-09-18T19:50:01.554Z,99.90
2022-09-18T19:52:29.255Z,99.90
2022-09-18T19:54:57.864Z,99.90
2022-09-18T19:57:26.663Z,99.90
2022-09-18T19:59:55.293Z,99.90
2022-09-18T20:02:24.212Z,99.90
2022-09-18T20:04:51.420Z,99.90
2022-09-18T20:07:18.811Z,99.90
2022-09-18T20:09:46.020Z,99.90
2022-09-18T20:12:13.093Z,99.90
2022-09-18T20:14:40.283Z,99.90
2022-09-18T20:17:08.239Z,99.90
2022-09-18T20:19:35.730Z,99.90
2022-09-18T20:22:03.128Z,99.90
2022-09-18T20:24:32.269Z,99.90
2022-09-18T20:27:00.390Z,99.90
2022-09-18T20:29:29.018Z,99.90
2022-09-18T20:31:56.229Z,99.90
2022-09-18T20:34:24.870Z,99.90
2022-09-18T20:36:52.465Z,99.90
2022-09-18T20:39:19.637Z,99.90
2022-09-18T20:41:47.709Z,99.90
2022-09-18T20:44:15.516Z,99.90
2022-09-18T20:46:43.234Z,99.90
2022-09-18T20:49:11.301Z,99.90
2022-09-18T20:51:38.356Z,99.90
2022-09-18T20:54:08.209Z,99.90
2022-09-18T20:56:43.436Z,99.90
2022-09-18T20:59:12.393Z,99.90
2022-09-18T21:01:42.174Z,99.90
2022-09-18T21:04:17.110Z,99.90
2022-09-18T21:06:48.060Z,99.90
2022-09-18T21:09:15.736Z,99.90
2022-09-18T21:11:44.859Z,99.90
2022-09-18T21:14:15.404Z,99.90
2022-09-18T21:16:44.021Z,99.90
2022-09-18T21:19:13.065Z,99.90
2022-09-18T21:21:40.395Z,99.90
2022-09-18T21:24:08.851Z,99.90
2022-09-18T21:26:39.232Z,99.90
2022-09-18T21:29:25.325Z,99.90
2022-09-18T21:31:55.196Z,99.90
2022-09-18T21:34:26.942Z,99.90
2022-09-18T21:36:57.864Z,99.90
2022-09-18T21:39:28.335Z,99.90
2022-09-18T21:41:56.922Z,99.90
2022-09-18T21:44:27.617Z,99.90
2022-09-18T21:46:56.665Z,99.90
2022-09-18T21:49:23.932Z,99.90
2022-09-18T21:51:55.304Z,99.90
2022-09-18T21:54:23.751Z,99.90
2022-09-18T21:56:52.314Z,99.90
2022-09-18T21:59:20.942Z,99.90
2022-09-18T22:01:49.135Z,99.90
2022-09-18T22:04:17.432Z,99.90
2022-09-18T22:06:46.806Z,99.90
2022-09-18T22:09:17.205Z,99.90
2022-09-18T22:11:45.400Z,99.90
2022-09-18T22:14:16.871Z,99.90
2022-09-18T22:16:45.773Z,99.90
2022-09-18T22:19:14.277Z,99.90
2022-09-18T22:21:45.356Z,99.90
2022-09-18T22:24:15.884Z,99.90
2022-09-18T22:26:46.879Z,99.90
2022-09-18T22:29:16.985Z,99.90
2022-09-18T22:31:46.763Z,99.90
2022-09-18T22:34:17.482Z,99.90
2022-09-18T22:36:45.432Z,99.90
2022-09-18T22:39:13.750Z,99.90
2022-09-18T22:41:41.483Z,99.90
2022-09-18T22:44:09.170Z,99.90
2022-09-18T22:46:38.545Z,99.90
2022-09-18T22:49:06.950Z,99.90
2022-09-18T22:51:33.949Z,99.90
2022-09-18T22:54:07.821Z,99.90
2022-09-18T22:56:40.407Z,99.90
2022-09-18T22:59:07.968Z,99.90
2022-09-18T23:01:49.142Z,99.90
2022-09-18T23:04:18.840Z,99.90
2022-09-18T23:06:47.731Z,99.90
2022-09-18T23:09:17.502Z,99.90
2022-09-18T23:11:46.706Z,99.90
2022-09-18T23:14:18.673Z,99.90
2022-09-18T23:16:46.262Z,99.90
2022-09-18T23:19:17.512Z,99.90
2022-09-18T23:21:44.577Z,99.90
2022-09-18T23:24:12.468Z,99.90
2022-09-18T23:26:41.959Z,99.90
2022-09-18T23:29:13.323Z,99.90
2022-09-18T23:31:43.158Z,99.90
2022-09-18T23:34:15.595Z,99.90
2022-09-18T23:36:44.950Z,99.90
2022-09-18T23:39:16.663Z,99.90
2022-09-18T23:41:44.225Z,99.90
2022-09-18T23:44:14.064Z,99.90
2022-09-18T23:46:42.117Z,99.90
2022-09-18T23:49:09.815Z,99.90
2022-09-18T23:51:40.435Z,99.90
2022-09-18T23:54:12.677Z,99.90
2022-09-18T23:56:39.658Z,99.90
2022-09-18T23:59:07.244Z,99.90
